Terminal Aerodrome Forecast
Issued by NWS

Current Version | Previous Version | Graphics & Text | Print | Product List | Glossary On
Versions: 1 2 3 4 5 6 7 8 9 10 11 12 13 14 15
209
FTUS41 KPBZ 190534
TAFHLG
TAF
KHLG 190534Z 1906/2006 10011KT P6SM VCSH OVC070
     FM190900 13012KT P6SM OVC040
      TEMPO 1909/1912 OVC025
     FM191600 17011KT P6SM VCTS BKN060CB
     FM192100 19011KT 5SM -SHRA VCTS BKN080CB
     FM200100 20010KT P6SM -SHRA OVC070=

USA.gov is the U.S. government's official web portal to all federal, state and local government web resources and services.